Terminal Aerodrome Forecast
Issued by NWS Newport/Morehead City, NC

Home | Current Version | Previous Version | Text Only | Print | Product List | Glossary On
Versions: 1 2 3 4 5 6 7 8 9 10 11 12 13 14 15
000
FTUS42 KMHX 010520
TAFEWN
TAF
KEWN 010520Z 0106/0206 03008KT P6SM BKN040 BKN050
     FM010800 04007KT P6SM OVC030
     FM011100 05006KT P6SM BKN020
     FM011900 14006KT P6SM VCSH BKN020
     FM012300 23005KT 5SM -RA OVC010=

USA.gov is the U.S. government's official web portal to all federal, state and local government web resources and services.